Terminal Aerodrome Forecast
Issued by NWS

Home | Current Version | Previous Version | Text Only | Print | Product List | Glossary On
Versions: 1 2 3 4 5 6 7 8 9 10 11 12 13 14 15 16 17 18 19
000
FTUS43 KDDC 231120
TAFHYS
TAF
KHYS 231120Z 2312/2412 15015G25KT 4SM BR OVC003
     FM231400 17018G29KT P6SM BKN010
     FM231900 19026G34KT P6SM BKN090
      TEMPO 2403/2406 3SM -TSRA BKN050CB
     FM240700 16019G27KT P6SM BKN150
      AMD NOT SKED=

USA.gov is the U.S. government's official web portal to all federal, state and local government web resources and services.